Time;durP1;ratioP1;P1;durP2;ratioP2;P2;SDS_P1;SDS_P2;PMS_P1;PMS_P2;Temp;Humidity;BMP_temperature;BMP_pressure;BME280_temperature;BME280_humidity;BME280_pressure;Samples;Min_cycle;Max_cycle;Signal;HPM_P1;HPM_P2
2023/02/18 00:01:23;;;;;;;0.40;0.20;;;;;;;33.96;38.75;100029.69;7386602;19;20556;-57
2023/02/18 00:05:53;;;;;;;0.00;0.00;;;;;;;29.93;50.28;100018.47;7425771;19;20398;-81
2023/02/18 00:08:20;;;;;;;0.15;0.03;;;;;;;33.25;42.42;100021.88;7426448;19;20043;-88
2023/02/18 00:10:48;;;;;;;0.10;0.00;;;;;;;33.47;40.46;100008.78;7429578;19;20006;-88
2023/02/18 00:13:14;;;;;;;0.10;0.00;;;;;;;33.37;39.86;99999.53;7430861;19;20014;-87
2023/02/18 00:15:40;;;;;;;0.10;0.00;;;;;;;33.80;38.75;99985.41;7430843;19;20027;-88
2023/02/18 00:18:06;;;;;;;3.83;0.32;;;;;;;34.10;37.79;99990.78;7431352;19;20831;-87
2023/02/18 00:20:35;;;;;;;0.10;0.10;;;;;;;34.11;37.64;99974.19;7429227;19;20029;-87
2023/02/18 00:23:02;;;;;;;0.10;0.00;;;;;;;34.08;37.28;99967.53;7429991;19;20070;-87
2023/02/18 00:25:28;;;;;;;0.10;0.00;;;;;;;34.11;36.84;99960.47;7430897;19;20014;-87
2023/02/18 00:27:54;;;;;;;0.15;0.15;;;;;;;34.00;36.66;99954.75;7426083;19;20018;-87
2023/02/18 00:30:21;;;;;;;0.10;0.10;;;;;;;22.79;50.78;99967.38;7424826;19;20078;-87
2023/02/18 00:32:47;;;;;;;0.05;0.00;;;;;;;13.60;100.00;99986.78;7426519;19;20460;-88
2023/02/18 00:35:13;;;;;;;0.47;0.10;;;;;;;11.82;100.00;99977.19;7428272;19;20022;-87
2023/02/18 00:37:43;;;;;;;1.13;0.22;;;;;;;13.62;100.00;99973.84;7429381;19;20010;-87
2023/02/18 00:40:09;;;;;;;0.10;0.00;;;;;;;12.41;100.00;99977.88;7429230;19;20106;-87
2023/02/18 00:42:35;;;;;;;4.47;0.55;;;;;;;11.35;100.00;99984.41;7428897;19;20093;-87
2023/02/18 00:45:01;;;;;;;1.50;0.20;;;;;;;12.64;100.00;99976.94;7428223;19;20070;-87
2023/02/18 00:47:30;;;;;;;7.95;0.65;;;;;;;11.14;100.00;99979.16;7427934;19;20010;-87
2023/02/18 00:49:57;;;;;;;0.10;0.10;;;;;;;11.32;100.00;99967.88;7426411;19;20014;-87
2023/02/18 00:52:24;;;;;;;0.10;0.10;;;;;;;11.17;100.00;99972.63;7426636;19;20010;-88
2023/02/18 00:54:50;;;;;;;1.15;0.13;;;;;;;11.01;100.00;99987.75;7429124;19;20341;-87
2023/02/18 00:57:16;;;;;;;0.13;0.10;;;;;;;14.39;100.00;99984.22;7429356;19;20038;-87
2023/02/18 00:59:42;;;;;;;0.10;0.10;;;;;;;13.10;100.00;100010.63;7427992;19;20010;-88
2023/02/18 01:02:08;;;;;;;0.10;0.00;;;;;;;12.37;100.00;99991.25;7430612;19;20479;-87
2023/02/18 01:04:34;;;;;;;2.22;0.20;;;;;;;16.83;100.00;99982.03;7427003;19;20025;-88
2023/02/18 01:07:01;;;;;;;3.00;0.50;;;;;;;12.47;100.00;99982.31;7423383;19;20018;-87
2023/02/18 01:09:27;;;;;;;0.20;0.17;;;;;;;12.02;100.00;99985.63;7423055;19;20018;-87
2023/02/18 01:11:53;;;;;;;0.47;0.22;;;;;;;26.47;88.81;99962.09;7424809;19;20015;-87
2023/02/18 01:14:20;;;;;;;0.00;0.00;;;;;;;27.42;64.43;99955.81;7426990;19;20017;-88
2023/02/18 01:16:46;;;;;;;1.70;0.28;;;;;;;15.07;100.00;99973.66;7404077;19;20045;-87
2023/02/18 01:19:12;;;;;;;0.10;0.10;;;;;;;12.08;100.00;99967.72;7399269;19;20479;-88
2023/02/18 01:21:38;;;;;;;0.10;0.10;;;;;;;11.18;100.00;99951.84;7398917;19;20754;-88
2023/02/18 01:24:05;;;;;;;5.68;0.65;;;;;;;10.99;100.00;99953.25;7397990;19;20011;-88
2023/02/18 01:26:31;;;;;;;0.15;0.10;;;;;;;10.65;100.00;99963.69;7395934;19;20033;-87
2023/02/18 01:28:57;;;;;;;0.10;0.00;;;;;;;10.42;100.00;99981.16;7396575;19;20038;-87
2023/02/18 01:31:23;;;;;;;0.20;0.10;;;;;;;10.46;100.00;99981.75;7395679;19;20031;-87
2023/02/18 01:33:50;;;;;;;0.10;0.00;;;;;;;10.21;100.00;99975.84;7397726;19;20385;-87
2023/02/18 01:36:16;;;;;;;1.45;0.38;;;;;;;10.16;100.00;99976.47;7400795;19;20011;-88
2023/02/18 01:38:42;;;;;;;0.63;0.25;;;;;;;11.55;100.00;99980.19;7397559;19;20045;-84
2023/02/18 01:41:09;;;;;;;0.30;0.08;;;;;;;10.63;100.00;99977.31;7398664;19;20021;-87
2023/02/18 01:43:36;;;;;;;0.30;0.20;;;;;;;10.59;100.00;99982.28;7396095;19;20123;-87
2023/02/18 01:46:07;;;;;;;0.10;0.10;;;;;;;27.37;80.55;99956.84;7400024;19;20370;-87
2023/02/18 01:48:52;;;;;;;0.10;0.10;;;;;;;31.49;55.31;99937.28;7399969;19;20015;-87
2023/02/18 01:51:21;;;;;;;1.40;0.95;;;;;;;13.93;100.00;99975.16;7399233;19;20372;-87
2023/02/18 01:54:05;;;;;;;0.00;0.00;;;;;;;11.40;100.00;99985.75;7399997;19;20014;-87
2023/02/18 01:56:39;;;;;;;1.25;0.63;;;;;;;12.55;100.00;99982.66;7397621;19;20018;-88
2023/02/18 01:59:10;;;;;;;0.10;0.10;;;;;;;10.88;100.00;99980.88;7397257;19;20010;-87
2023/02/18 02:01:38;;;;;;;2.17;0.47;;;;;;;10.43;100.00;99979.13;7396890;19;20018;-88
2023/02/18 02:04:04;;;;;;;0.77;0.43;;;;;;;10.28;100.00;99967.94;7397432;19;20456;-88
2023/02/18 02:06:31;;;;;;;0.10;0.10;;;;;;;10.29;100.00;99977.03;7399892;19;20011;-87
2023/02/18 02:09:00;;;;;;;0.10;0.10;;;;;;;10.21;100.00;99973.03;7396825;19;20353;-88
2023/02/18 02:11:46;;;;;;;1.17;0.43;;;;;;;10.80;100.00;99971.34;7395978;19;20375;-89
2023/02/18 02:14:28;;;;;;;3.92;1.23;;;;;;;23.19;100.00;99948.69;7396230;19;20049;-88
2023/02/18 02:17:11;;;;;;;9.63;0.30;;;;;;;11.29;100.00;99958.44;7397669;19;20021;-89
2023/02/18 02:20:14;;;;;;;0.00;0.00;;;;;;;10.26;100.00;99973.19;7397418;19;20014;-87
2023/02/18 02:23:01;;;;;;;0.85;0.47;;;;;;;9.96;100.00;99970.66;7398009;19;20014;-89
2023/02/18 02:25:53;;;;;;;0.17;0.17;;;;;;;9.97;100.00;99966.59;7400620;19;20002;-89
2023/02/18 02:29:00;;;;;;;0.00;0.00;;;;;;;9.80;100.00;99966.19;7391788;19;20015;-89
2023/02/18 02:31:48;;;;;;;4.78;0.40;;;;;;;21.54;100.00;99938.22;7394702;19;20015;-89
2023/02/18 02:34:29;;;;;;;0.10;0.10;;;;;;;12.82;100.00;99960.69;7395977;19;20074;-88
2023/02/18 02:37:24;;;;;;;0.32;0.15;;;;;;;11.85;100.00;99937.91;7395120;19;20018;-89
2023/02/18 02:40:08;;;;;;;0.20;0.20;;;;;;;10.00;100.00;99944.22;7397570;19;20018;-89
2023/02/18 02:43:06;;;;;;;2.15;0.40;;;;;;;9.82;100.00;99938.69;7394644;19;20011;-89
2023/02/18 02:46:05;;;;;;;1.13;0.30;;;;;;;9.69;100.00;99940.88;7393423;19;20350;-89
2023/02/18 02:48:43;;;;;;;0.75;0.17;;;;;;;9.68;100.00;99931.03;7395114;19;20015;-89
2023/02/18 02:51:19;;;;;;;0.88;0.25;;;;;;;9.87;100.00;99913.78;7394014;19;20015;-89
2023/02/18 02:53:45;;;;;;;0.40;0.15;;;;;;;9.77;100.00;99925.41;7396006;19;20011;-88
2023/02/18 02:56:18;;;;;;;0.20;0.20;;;;;;;10.71;100.00;99907.34;7397327;19;20022;-88
2023/02/18 02:58:52;;;;;;;3.70;1.05;;;;;;;13.95;100.00;99888.63;7395670;19;20007;-88
2023/02/18 03:01:25;;;;;;;0.80;0.30;;;;;;;10.60;100.00;99891.94;7395822;19;20010;-88
2023/02/18 03:04:35;;;;;;;5.05;0.30;;;;;;;10.00;100.00;99899.69;7395786;19;20343;-89
2023/02/18 03:07:05;;;;;;;0.20;0.20;;;;;;;9.97;100.00;99891.50;7396304;19;20018;-88
2023/02/18 03:09:47;;;;;;;0.10;0.00;;;;;;;27.97;80.45;99864.41;7395437;19;20017;-88
2023/02/18 03:12:28;;;;;;;0.22;0.20;;;;;;;31.29;55.61;99865.47;7397081;19;20074;-89
2023/02/18 03:15:23;;;;;;;3.63;0.50;;;;;;;32.14;49.30;99856.47;7397317;19;20352;-88
2023/02/18 03:18:34;;;;;;;0.90;0.47;;;;;;;33.37;43.94;99849.38;7396008;19;20484;-88
2023/02/18 03:21:10;;;;;;;0.10;0.00;;;;;;;32.99;41.75;99847.13;7394300;19;20357;-89
2023/02/18 03:24:00;;;;;;;0.13;0.05;;;;;;;33.40;40.53;99836.53;7395073;19;20021;-88
2023/02/18 03:26:29;;;;;;;0.22;0.00;;;;;;;33.76;38.77;99838.56;7394384;19;20377;-88
2023/02/18 03:29:01;;;;;;;0.32;0.32;;;;;;;31.81;40.91;99847.19;7395265;19;20050;-88
2023/02/18 03:31:31;;;;;;;0.50;0.43;;;;;;;24.19;55.70;99848.84;7393875;19;20014;-87
2023/02/18 03:34:11;;;;;;;1.60;0.43;;;;;;;30.47;46.58;99846.28;7394561;19;20010;-88
2023/02/18 03:36:39;;;;;;;0.10;0.10;;;;;;;13.57;100.00;99875.88;7398825;19;20043;-88
2023/02/18 03:39:16;;;;;;;0.20;0.17;;;;;;;11.32;100.00;99873.06;7394539;19;20074;-87
2023/02/18 03:41:42;;;;;;;0.52;0.22;;;;;;;10.73;100.00;99882.56;7394837;19;20085;-88
2023/02/18 03:44:09;;;;;;;0.35;0.20;;;;;;;10.33;100.00;99866.31;7394128;19;20018;-88
2023/02/18 03:46:39;;;;;;;0.10;0.10;;;;;;;10.48;100.00;99862.31;7392676;19;20014;-87
2023/02/18 03:49:05;;;;;;;0.10;0.10;;;;;;;10.18;100.00;99869.00;7394745;19;20478;-87
2023/02/18 03:51:31;;;;;;;4.40;0.20;;;;;;;10.02;100.00;99886.06;7391878;19;20017;-88
2023/02/18 03:53:58;;;;;;;0.10;0.10;;;;;;;15.93;100.00;99865.38;7391009;19;20014;-88
2023/02/18 03:56:24;;;;;;;0.10;0.00;;;;;;;30.05;63.43;99842.59;7394698;19;20018;-88
2023/02/18 03:58:50;;;;;;;0.10;0.10;;;;;;;31.48;53.24;99843.63;7394287;19;20014;-88
2023/02/18 04:01:16;;;;;;;0.10;0.00;;;;;;;30.13;49.05;99843.16;7393866;19;20456;-87
2023/02/18 04:03:43;;;;;;;0.10;0.00;;;;;;;28.77;52.44;99849.06;7394647;19;20022;-87
2023/02/18 04:06:09;;;;;;;0.00;0.00;;;;;;;32.11;47.30;99834.69;7397179;19;20046;-87
2023/02/18 04:08:35;;;;;;;2.20;0.17;;;;;;;25.36;52.28;99838.19;7394935;19;20029;-88
2023/02/18 04:11:04;;;;;;;0.10;0.10;;;;;;;13.30;100.00;99851.19;7391878;19;20011;-88
2023/02/18 04:13:30;;;;;;;0.00;0.00;;;;;;;11.35;100.00;99858.16;7393707;19;20018;-86
2023/02/18 04:15:56;;;;;;;0.63;0.20;;;;;;;11.46;100.00;99858.34;7395406;19;20031;-87
2023/02/18 04:18:23;;;;;;;0.00;0.00;;;;;;;10.39;100.00;99854.06;7393418;19;20030;-87
2023/02/18 04:20:49;;;;;;;0.10;0.00;;;;;;;10.29;100.00;99860.91;7393197;19;20018;-88
2023/02/18 04:23:16;;;;;;;0.10;0.00;;;;;;;10.84;100.00;99849.34;7393985;19;20028;-88
2023/02/18 04:25:43;;;;;;;0.10;0.10;;;;;;;12.18;100.00;99860.28;7396036;19;20094;-88
2023/02/18 04:28:12;;;;;;;0.10;0.10;;;;;;;10.28;100.00;99861.38;7389633;19;20018;-88
2023/02/18 04:30:38;;;;;;;1.75;0.55;;;;;;;10.51;100.00;99855.03;7391077;19;20023;-89
2023/02/18 04:33:05;;;;;;;0.00;0.00;;;;;;;22.19;100.00;99860.59;7393062;19;20025;-88
2023/02/18 04:35:31;;;;;;;0.20;0.15;;;;;;;18.84;100.00;99862.47;7395165;19;20042;-88
2023/02/18 04:37:57;;;;;;;0.00;0.00;;;;;;;16.88;100.00;99868.72;7392436;19;20014;-88
2023/02/18 04:40:25;;;;;;;0.10;0.00;;;;;;;26.78;85.24;99846.19;7394982;19;20018;-89
2023/02/18 04:42:51;;;;;;;0.90;0.30;;;;;;;26.94;63.20;99849.63;7394804;19;20014;-88
2023/02/18 04:45:17;;;;;;;0.43;0.17;;;;;;;14.54;100.00;99869.16;7392046;19;20022;-88
2023/02/18 04:47:43;;;;;;;0.00;0.00;;;;;;;11.62;100.00;99866.22;7390897;19;20007;-88
2023/02/18 04:50:10;;;;;;;0.73;0.38;;;;;;;11.25;100.00;99868.66;7391055;19;20006;-88
2023/02/18 04:52:36;;;;;;;0.10;0.00;;;;;;;10.45;100.00;99877.19;7399529;19;20337;-88
2023/02/18 04:55:03;;;;;;;0.10;0.00;;;;;;;10.14;100.00;99876.75;7399756;19;20014;-87
2023/02/18 04:57:29;;;;;;;0.00;0.00;;;;;;;20.21;100.00;99858.03;7400668;19;20037;-88
2023/02/18 04:59:55;;;;;;;0.10;0.00;;;;;;;21.24;100.00;99869.09;7401976;19;20010;-88
2023/02/18 05:02:21;;;;;;;0.10;0.00;;;;;;;29.85;68.20;99848.44;7399928;19;20749;-88
2023/02/18 05:04:47;;;;;;;0.10;0.00;;;;;;;30.48;55.19;99849.94;7400153;19;20010;-88
2023/02/18 05:07:13;;;;;;;0.25;0.25;;;;;;;29.96;52.61;99853.53;7398337;19;20018;-88
2023/02/18 05:09:40;;;;;;;0.28;0.08;;;;;;;31.77;51.14;99853.44;7397378;19;20015;-88
2023/02/18 05:12:06;;;;;;;0.10;0.10;;;;;;;16.65;100.00;99880.06;7396741;19;20125;-87
2023/02/18 05:14:32;;;;;;;0.10;0.10;;;;;;;11.96;100.00;99885.06;7399218;19;20052;-88
2023/02/18 05:16:59;;;;;;;0.10;0.10;;;;;;;10.95;100.00;99888.59;7401296;19;20018;-87
2023/02/18 05:19:25;;;;;;;0.10;0.10;;;;;;;12.81;100.00;99882.91;7401052;19;20031;-88
2023/02/18 05:21:51;;;;;;;0.30;0.30;;;;;;;12.66;100.00;99882.22;7397615;19;20011;-88
2023/02/18 05:24:17;;;;;;;0.00;0.00;;;;;;;10.65;100.00;99898.88;7400223;19;20349;-90
2023/02/18 05:26:43;;;;;;;0.00;0.00;;;;;;;10.79;100.00;99891.78;7397960;19;20021;-88
2023/02/18 05:29:09;;;;;;;0.10;0.10;;;;;;;12.68;100.00;99876.91;7397107;19;20102;-87
2023/02/18 05:31:37;;;;;;;0.10;0.10;;;;;;;10.83;100.00;99870.13;7396728;19;20025;-87
2023/02/18 05:34:03;;;;;;;5.93;0.20;;;;;;;13.30;100.00;99868.75;7397672;19;20341;-88
2023/02/18 05:36:29;;;;;;;0.10;0.10;;;;;;;13.34;100.00;99874.88;7402758;19;20678;-88
2023/02/18 05:38:56;;;;;;;0.10;0.00;;;;;;;11.14;100.00;99876.81;7400998;19;20010;-87
2023/02/18 05:41:22;;;;;;;0.10;0.10;;;;;;;10.36;100.00;99877.25;7398085;19;20037;-87
2023/02/18 05:46:32;;;;;;;0.00;0.00;;;;;;;15.60;100.00;99854.16;7399536;19;20041;-88
2023/02/18 05:48:59;;;;;;;0.08;0.00;;;;;;;10.63;100.00;99852.00;7392780;19;20472;-82
2023/02/18 05:51:25;;;;;;;1.55;0.20;;;;;;;10.13;100.00;99861.31;7389515;19;20025;-82
2023/02/18 05:53:51;;;;;;;0.30;0.30;;;;;;;9.92;100.00;99865.09;7388791;19;20014;-82
2023/02/18 05:56:17;;;;;;;0.63;0.10;;;;;;;9.90;100.00;99867.56;7391809;19;20093;-82
2023/02/18 05:58:44;;;;;;;0.90;0.22;;;;;;;12.25;100.00;99863.91;7388339;19;20047;-82
2023/02/18 06:01:10;;;;;;;0.10;0.00;;;;;;;10.18;100.00;99855.09;7389529;19;20021;-82
2023/02/18 06:03:36;;;;;;;4.65;0.68;;;;;;;9.89;100.00;99854.91;7387892;19;20026;-83
2023/02/18 06:06:03;;;;;;;0.10;0.00;;;;;;;23.26;100.00;99817.97;7391217;19;20074;-83
2023/02/18 06:08:29;;;;;;;0.00;0.00;;;;;;;30.76;66.04;99823.06;7389557;19;20070;-82
2023/02/18 06:10:55;;;;;;;0.00;0.00;;;;;;;32.59;51.85;99803.03;7390861;19;20071;-83
2023/02/18 06:13:21;;;;;;;0.00;0.00;;;;;;;32.44;49.33;99803.53;7389935;19;20039;-80
2023/02/18 06:15:50;;;;;;;0.00;0.00;;;;;;;21.44;71.11;99837.22;7392644;19;20798;-83
2023/02/18 06:18:17;;;;;;;0.00;0.00;;;;;;;12.98;100.00;99855.16;7393433;19;20023;-83
2023/02/18 06:20:43;;;;;;;0.13;0.13;;;;;;;11.27;100.00;99854.22;7390180;19;20014;-83
2023/02/18 06:23:09;;;;;;;0.10;0.00;;;;;;;28.49;68.83;99831.22;7391490;19;20028;-83
2023/02/18 06:25:35;;;;;;;0.00;0.00;;;;;;;18.31;100.00;99852.03;7391302;19;20014;-83
2023/02/18 06:28:02;;;;;;;0.03;0.00;;;;;;;17.16;100.00;99852.44;7389740;19;20692;-85
2023/02/18 06:30:28;;;;;;;0.10;0.10;;;;;;;16.80;100.00;99857.25;7390192;19;20019;-83
2023/02/18 06:32:54;;;;;;;5.07;0.30;;;;;;;17.65;100.00;99845.72;7388278;19;20357;-84
2023/02/18 06:35:20;;;;;;;0.10;0.10;;;;;;;24.38;100.00;99837.81;7393334;19;20010;-86
2023/02/18 06:37:46;;;;;;;0.03;0.00;;;;;;;30.46;60.77;99844.03;7391153;19;20015;-84
2023/02/18 06:40:12;;;;;;;0.10;0.00;;;;;;;28.35;72.02;99850.19;7394253;19;20018;-86
2023/02/18 06:42:39;;;;;;;0.00;0.00;;;;;;;32.47;50.59;99848.44;7396219;19;20015;-85
2023/02/18 06:45:05;;;;;;;1.00;0.30;;;;;;;21.42;95.34;99873.84;7392798;19;20345;-85
2023/02/18 06:47:33;;;;;;;0.10;0.00;;;;;;;17.39;100.00;99884.78;7392576;19;20046;-84
2023/02/18 06:49:59;;;;;;;0.10;0.10;;;;;;;30.29;62.73;99855.78;7393822;19;20022;-85
2023/02/18 06:52:25;;;;;;;0.10;0.00;;;;;;;32.99;49.32;99862.34;7393341;19;20050;-85
2023/02/18 06:54:51;;;;;;;0.10;0.00;;;;;;;27.46;52.24;99873.91;7394675;19;20014;-85
2023/02/18 06:57:17;;;;;;;0.10;0.10;;;;;;;32.62;48.49;99859.44;7396322;19;20483;-86
2023/02/18 06:59:44;;;;;;;0.10;0.10;;;;;;;34.22;42.53;99870.00;7395731;19;20093;-86
2023/02/18 07:02:12;;;;;;;0.10;0.10;;;;;;;34.45;40.59;99888.53;7393945;19;20448;-86
2023/02/18 07:04:38;;;;;;;0.00;0.00;;;;;;;34.69;39.57;99895.59;7394110;19;20041;-85
2023/02/18 07:07:04;;;;;;;0.10;0.10;;;;;;;34.19;39.50;99903.09;7392189;19;20356;-85
2023/02/18 07:09:30;;;;;;;0.57;0.10;;;;;;;34.03;39.86;99901.47;7392972;19;20019;-85
2023/02/18 07:11:57;;;;;;;0.08;0.00;;;;;;;23.39;53.11;99927.19;7390702;19;20086;-85
2023/02/18 07:14:23;;;;;;;0.00;0.00;;;;;;;31.51;49.02;99905.75;7386883;19;20023;-85
2023/02/18 07:16:50;;;;;;;1.10;0.13;;;;;;;32.87;43.24;99896.25;7392175;19;20010;-84
2023/02/18 07:19:16;;;;;;;0.10;0.00;;;;;;;19.54;79.17;99915.66;7390831;19;20019;-85
2023/02/18 07:21:42;;;;;;;0.68;0.35;;;;;;;12.56;100.00;99936.72;7391370;19;20368;-83
2023/02/18 07:24:08;;;;;;;0.10;0.00;;;;;;;10.95;100.00;99933.94;7391635;19;20002;-84
2023/02/18 07:26:34;;;;;;;0.03;0.00;;;;;;;10.24;100.00;99942.28;7389413;19;20035;-84
2023/02/18 07:29:01;;;;;;;0.10;0.10;;;;;;;10.01;100.00;99939.38;7390622;19;20567;-84
2023/02/18 07:31:27;;;;;;;0.65;0.20;;;;;;;11.28;100.00;99934.56;7389233;19;20051;-84
2023/02/18 07:33:53;;;;;;;0.20;0.10;;;;;;;12.37;100.00;99927.78;7386445;19;20030;-84
2023/02/18 07:36:19;;;;;;;0.68;0.43;;;;;;;9.76;100.00;99926.66;7391236;19;20010;-84
2023/02/18 07:38:45;;;;;;;0.10;0.10;;;;;;;27.44;85.95;99890.19;7391386;19;20031;-84
2023/02/18 07:41:17;;;;;;;0.10;0.10;;;;;;;31.01;58.29;99894.50;7389885;19;20166;-84
2023/02/18 07:43:43;;;;;;;0.00;0.00;;;;;;;32.30;51.08;99897.81;7388704;19;20018;-83
2023/02/18 07:46:10;;;;;;;0.10;0.00;;;;;;;32.60;47.41;99896.81;7392544;19;20010;-85
2023/02/18 07:48:36;;;;;;;0.25;0.20;;;;;;;33.24;45.12;99894.13;7387954;19;20049;-83
2023/02/18 07:51:07;;;;;;;0.10;0.00;;;;;;;34.21;41.86;99894.53;7386849;19;20041;-84
2023/02/18 07:53:33;;;;;;;0.75;0.20;;;;;;;32.44;42.86;99892.94;7387488;19;20041;-83
2023/02/18 07:56:00;;;;;;;1.88;0.75;;;;;;;34.78;38.99;99897.53;7388641;19;20035;-84
2023/02/18 07:58:32;;;;;;;0.77;0.15;;;;;;;33.58;37.95;99895.34;7386131;19;20041;-83
2023/02/18 08:00:59;;;;;;;0.10;0.00;;;;;;;27.75;67.58;99902.72;7387779;19;20026;-82
2023/02/18 08:03:31;;;;;;;0.10;0.00;;;;;;;33.25;42.85;99886.19;7386185;19;20094;-82
2023/02/18 08:05:57;;;;;;;0.10;0.10;;;;;;;32.57;43.42;99880.03;7387343;19;20025;-82
2023/02/18 08:08:28;;;;;;;0.10;0.10;;;;;;;32.74;40.87;99889.00;7382835;19;20014;-82
2023/02/18 08:10:57;;;;;;;1.85;0.38;;;;;;;31.99;41.17;99880.03;7382781;19;20018;-83
2023/02/18 08:13:23;;;;;;;0.63;0.35;;;;;;;32.58;39.16;99872.84;7384725;19;20038;-81
2023/02/18 08:15:49;;;;;;;3.45;0.38;;;;;;;32.97;38.35;99878.75;7388820;19;20082;-83
2023/02/18 08:18:18;;;;;;;0.00;0.00;;;;;;;32.56;38.79;99879.25;7385114;19;20018;-82
2023/02/18 08:20:49;;;;;;;5.68;0.43;;;;;;;31.37;39.25;99879.63;7385959;19;20018;-82
2023/02/18 08:23:16;;;;;;;0.10;0.10;;;;;;;33.13;37.16;99877.59;7385118;19;20014;-82
2023/02/18 08:25:47;;;;;;;6.35;0.82;;;;;;;32.16;37.38;99876.78;7386532;19;20372;-83
2023/02/18 08:28:13;;;;;;;0.00;0.00;;;;;;;32.62;37.29;99885.38;7389226;19;20756;-83
2023/02/18 08:30:44;;;;;;;0.10;0.10;;;;;;;24.55;53.33;99889.22;7388371;19;20037;-83
2023/02/18 08:33:11;;;;;;;2.15;0.05;;;;;;;31.68;40.30;99880.25;7391365;19;20618;-83
2023/02/18 08:35:37;;;;;;;0.40;0.10;;;;;;;32.08;38.41;99887.78;7392350;19;20018;-83
2023/02/18 08:38:03;;;;;;;1.75;0.73;;;;;;;30.28;41.24;99894.47;7391811;19;20504;-83
2023/02/18 08:40:29;;;;;;;0.30;0.10;;;;;;;29.87;40.88;99880.16;7392932;19;20014;-82
2023/02/18 08:42:55;;;;;;;0.40;0.40;;;;;;;25.15;46.91;99891.91;7392051;19;20114;-82
2023/02/18 08:45:22;;;;;;;0.45;0.10;;;;;;;19.49;70.43;99893.91;7391798;19;20025;-83
2023/02/18 08:47:48;;;;;;;0.60;0.40;;;;;;;23.93;56.16;99896.22;7389206;19;20464;-82
2023/02/18 08:50:14;;;;;;;0.35;0.10;;;;;;;27.41;55.07;99888.50;7392902;19;20035;-82
2023/02/18 08:52:40;;;;;;;0.28;0.20;;;;;;;31.42;42.75;99879.28;7388395;19;20018;-82
2023/02/18 08:55:07;;;;;;;0.25;0.25;;;;;;;28.38;44.59;99879.75;7390404;19;20684;-82
2023/02/18 08:57:33;;;;;;;0.10;0.00;;;;;;;31.38;41.91;99876.13;7392731;19;20033;-82
2023/02/18 08:59:59;;;;;;;0.10;0.10;;;;;;;32.17;39.35;99872.50;7391588;19;20028;-82
2023/02/18 09:02:28;;;;;;;0.47;0.15;;;;;;;32.56;37.97;99879.25;7392865;19;20039;-82
2023/02/18 09:04:54;;;;;;;0.10;0.10;;;;;;;31.18;38.75;99874.81;7390217;19;20019;-82
2023/02/18 09:07:20;;;;;;;0.20;0.10;;;;;;;32.04;37.48;99881.78;7390402;19;20022;-83
2023/02/18 09:09:46;;;;;;;11.27;0.20;;;;;;;32.31;36.96;99873.38;7390387;19;20491;-83
2023/02/18 09:12:12;;;;;;;0.10;0.03;;;;;;;32.14;36.89;99885.28;7389654;19;20035;-82
2023/02/18 09:14:38;;;;;;;0.10;0.10;;;;;;;32.13;37.08;99883.78;7389642;19;20368;-82
2023/02/18 09:17:04;;;;;;;0.30;0.25;;;;;;;32.21;37.05;99878.53;7390823;19;20803;-82
2023/02/18 09:19:30;;;;;;;0.17;0.10;;;;;;;24.62;44.12;99891.28;7392458;19;20022;-82
2023/02/18 09:21:57;;;;;;;0.10;0.00;;;;;;;13.89;100.00;99913.78;7390921;19;20079;-82
2023/02/18 09:24:25;;;;;;;1.38;0.20;;;;;;;12.55;100.00;99910.03;7391077;19;20015;-81
2023/02/18 09:26:53;;;;;;;0.10;0.00;;;;;;;11.33;100.00;99902.47;7390826;19;20018;-82
2023/02/18 09:29:19;;;;;;;0.10;0.00;;;;;;;11.24;100.00;99911.69;7393246;19;20035;-82
2023/02/18 09:31:45;;;;;;;0.75;0.73;;;;;;;13.45;100.00;99908.56;7391469;19;20344;-82
2023/02/18 09:34:11;;;;;;;0.10;0.00;;;;;;;26.38;82.21;99899.88;7391893;19;20372;-81
2023/02/18 09:36:38;;;;;;;4.13;0.28;;;;;;;13.43;100.00;99905.50;7397272;19;20146;-82
2023/02/18 09:39:07;;;;;;;0.47;0.47;;;;;;;11.14;100.00;99915.03;7391715;19;20011;-82
2023/02/18 09:41:48;;;;;;;0.00;0.00;;;;;;;12.13;100.00;99907.63;7390337;19;20090;-82
2023/02/18 09:44:24;;;;;;;0.10;0.00;;;;;;;24.40;92.03;99883.53;7389813;19;20014;-82
2023/02/18 09:46:55;;;;;;;0.10;0.00;;;;;;;12.28;100.00;99916.00;7391087;19;20356;-82
2023/02/18 09:49:25;;;;;;;0.52;0.52;;;;;;;12.35;100.00;99905.19;7390510;19;20464;-81
2023/02/18 09:51:53;;;;;;;1.27;0.47;;;;;;;19.21;100.00;99898.41;7391572;19;20081;-82
2023/02/18 09:54:20;;;;;;;3.30;0.20;;;;;;;13.78;100.00;99904.53;7387290;19;20018;-82
2023/02/18 09:56:47;;;;;;;0.68;0.40;;;;;;;15.21;100.00;99910.19;7389345;19;20011;-82
2023/02/18 09:59:18;;;;;;;0.10;0.00;;;;;;;11.50;100.00;99917.47;7391298;19;20098;-82
2023/02/18 10:01:47;;;;;;;0.45;0.30;;;;;;;10.96;100.00;99918.00;7389246;19;20585;-82
2023/02/18 10:04:22;;;;;;;0.10;0.00;;;;;;;10.95;100.00;99927.59;7389326;19;20022;-82
2023/02/18 10:06:51;;;;;;;0.10;0.10;;;;;;;10.86;100.00;99930.44;7388369;19;20101;-82
2023/02/18 10:09:21;;;;;;;0.13;0.10;;;;;;;25.59;100.00;99900.84;7388422;19;20078;-82
2023/02/18 10:11:52;;;;;;;0.10;0.00;;;;;;;22.43;80.32;99924.72;7387645;19;20014;-82
2023/02/18 10:14:18;;;;;;;0.10;0.00;;;;;;;31.70;58.32;99894.00;7388463;19;20021;-82
2023/02/18 10:16:46;;;;;;;0.10;0.00;;;;;;;33.06;50.21;99906.75;7387994;19;20018;-82
2023/02/18 10:19:35;;;;;;;10.98;1.33;;;;;;;30.16;60.42;99905.16;7387992;19;20017;-82
2023/02/18 10:22:04;;;;;;;3.03;0.20;;;;;;;33.74;45.13;99913.59;7387817;19;20502;-83
2023/02/18 10:24:39;;;;;;;0.20;0.20;;;;;;;31.98;43.96;99918.88;7388530;19;20029;-82
2023/02/18 10:27:08;;;;;;;0.10;0.08;;;;;;;34.86;38.95;99909.50;7386918;19;20025;-82
2023/02/18 10:29:35;;;;;;;0.80;0.30;;;;;;;18.99;84.08;99947.47;7386422;19;20359;-82
2023/02/18 10:32:15;;;;;;;0.10;0.10;;;;;;;13.75;100.00;99953.13;7388587;19;20029;-81
2023/02/18 10:35:03;;;;;;;1.20;0.38;;;;;;;12.71;100.00;99957.00;7390559;19;20489;-81
2023/02/18 10:37:59;;;;;;;6.38;0.38;;;;;;;12.45;100.00;99956.09;7389067;19;20026;-82
2023/02/18 10:40:44;;;;;;;0.00;0.00;;;;;;;26.09;98.83;99935.94;7387378;19;20043;-81
2023/02/18 10:43:23;;;;;;;0.10;0.00;;;;;;;34.56;45.37;99928.19;7387762;19;20454;-82
2023/02/18 10:46:10;;;;;;;0.30;0.13;;;;;;;35.94;37.25;99939.50;7390619;19;20014;-82
2023/02/18 10:48:54;;;;;;;0.32;0.10;;;;;;;36.96;34.08;99937.69;7385984;19;20086;-81
2023/02/18 10:51:24;;;;;;;0.03;0.00;;;;;;;36.72;33.22;99945.31;7386990;19;20023;-82
2023/02/18 10:53:52;;;;;;;2.17;0.13;;;;;;;36.85;32.20;99948.09;7387760;19;20007;-82
2023/02/18 10:56:49;;;;;;;0.57;0.20;;;;;;;22.34;50.86;99982.72;7386736;19;20019;-81
2023/02/18 10:59:23;;;;;;;4.03;0.20;;;;;;;15.24;100.00;99995.41;7387371;19;20034;-82
2023/02/18 11:01:59;;;;;;;0.00;0.00;;;;;;;13.70;100.00;100002.19;7390570;19;20039;-81
2023/02/18 11:04:38;;;;;;;4.43;0.60;;;;;;;23.88;100.00;99985.38;7389449;19;20051;-82
2023/02/18 11:07:11;;;;;;;0.10;0.08;;;;;;;34.74;42.23;99981.25;7386278;19;20014;-82
2023/02/18 11:09:46;;;;;;;3.42;0.52;;;;;;;36.41;35.56;99978.75;7386920;19;20570;-81
2023/02/18 11:12:16;;;;;;;4.45;0.30;;;;;;;35.85;34.20;99986.91;7386237;19;20074;-81
2023/02/18 11:14:45;;;;;;;3.67;0.85;;;;;;;34.36;35.51;99982.78;7388510;19;20033;-81
2023/02/18 11:17:28;;;;;;;3.40;0.52;;;;;;;36.03;33.04;99984.91;7386200;19;20019;-81
2023/02/18 11:20:21;;;;;;;1.23;0.68;;;;;;;35.90;32.75;99982.78;7386291;19;20018;-80
2023/02/18 11:22:48;;;;;;;6.28;1.38;;;;;;;36.24;32.04;99972.84;7386577;19;20010;-80
2023/02/18 11:25:20;;;;;;;16.45;1.45;;;;;;;36.07;31.93;99961.88;7389161;19;20026;-81
2023/02/18 11:27:55;;;;;;;21.75;2.72;;;;;;;36.21;32.03;99950.97;7385864;19;20022;-81
2023/02/18 11:30:26;;;;;;;6.90;1.33;;;;;;;36.38;31.19;99959.00;7384363;19;20014;-82
2023/02/18 11:32:58;;;;;;;5.20;1.50;;;;;;;27.02;43.60;99961.78;7385051;19;20022;-81
2023/02/18 11:35:28;;;;;;;6.10;1.92;;;;;;;26.52;42.94;99966.03;7385451;19;20476;-82
2023/02/18 11:37:57;;;;;;;0.43;0.32;;;;;;;33.99;35.85;99954.00;7390589;19;20475;-82
2023/02/18 11:40:31;;;;;;;8.20;0.63;;;;;;;34.39;34.58;99955.50;7389441;19;20018;-82
2023/02/18 11:43:14;;;;;;;2.05;0.52;;;;;;;35.75;32.92;99952.38;7390123;19;20035;-82
2023/02/18 11:45:41;;;;;;;5.15;1.00;;;;;;;36.52;31.50;99959.66;7387510;19;20019;-81
2023/02/18 11:48:13;;;;;;;0.75;0.40;;;;;;;36.54;31.05;99959.03;7388075;19;20019;-82